sensor_id;sensor_type;location;lat;lon;timestamp;pressure;altitude;pressure_sealevel;temperature;humidity
8756;BME280;4414;42.670;23.228;2024-01-30T00:01:11;94966.56;;;-2.67;64.64
8756;BME280;4414;42.670;23.228;2024-01-30T00:03:36;94974.44;;;-2.67;64.68
8756;BME280;4414;42.670;23.228;2024-01-30T00:06:03;94972.91;;;-2.64;64.47
8756;BME280;4414;42.670;23.228;2024-01-30T00:08:29;94969.19;;;-2.67;64.86
8756;BME280;4414;42.670;23.228;2024-01-30T00:10:54;94971.81;;;-2.67;64.53
8756;BME280;4414;42.670;23.228;2024-01-30T00:13:19;94973.66;;;-2.64;64.25
8756;BME280;4414;42.670;23.228;2024-01-30T00:15:45;94965.41;;;-2.66;64.75
8756;BME280;4414;42.670;23.228;2024-01-30T00:18:11;94971.06;;;-2.67;65.59
8756;BME280;4414;42.670;23.228;2024-01-30T00:20:36;94975.56;;;-2.68;65.48
8756;BME280;4414;42.670;23.228;2024-01-30T00:23:01;94977.03;;;-2.63;65.26
8756;BME280;4414;42.670;23.228;2024-01-30T00:25:27;94978.94;;;-2.67;65.83
8756;BME280;4414;42.670;23.228;2024-01-30T00:27:52;94979.69;;;-2.67;65.54
8756;BME280;4414;42.670;23.228;2024-01-30T00:30:18;94971.41;;;-2.65;65.29
8756;BME280;4414;42.670;23.228;2024-01-30T00:32:43;94984.16;;;-2.64;65.92
8756;BME280;4414;42.670;23.228;2024-01-30T00:35:09;94969.91;;;-2.66;65.41
8756;BME280;4414;42.670;23.228;2024-01-30T00:37:35;94966.56;;;-2.67;66.00
8756;BME280;4414;42.670;23.228;2024-01-30T00:40:09;94965.75;;;-2.64;66.16
8756;BME280;4414;42.670;23.228;2024-01-30T00:42:41;94970.97;;;-2.60;65.80
8756;BME280;4414;42.670;23.228;2024-01-30T00:45:11;94969.09;;;-2.60;66.65
8756;BME280;4414;42.670;23.228;2024-01-30T00:47:36;94963.09;;;-2.60;65.40
8756;BME280;4414;42.670;23.228;2024-01-30T00:50:02;94963.09;;;-2.60;64.91
8756;BME280;4414;42.670;23.228;2024-01-30T00:52:27;94963.84;;;-2.60;64.67
8756;BME280;4414;42.670;23.228;2024-01-30T00:54:52;94959.41;;;-2.66;66.35
8756;BME280;4414;42.670;23.228;2024-01-30T00:57:18;94961.28;;;-2.63;66.60
8756;BME280;4414;42.670;23.228;2024-01-30T00:59:43;94965.00;;;-2.64;66.10
8756;BME280;4414;42.670;23.228;2024-01-30T01:02:08;94963.91;;;-2.63;65.83
8756;BME280;4414;42.670;23.228;2024-01-30T01:04:34;94966.94;;;-2.68;66.34
8756;BME280;4414;42.670;23.228;2024-01-30T01:06:59;94967.31;;;-2.70;65.63
8756;BME280;4414;42.670;23.228;2024-01-30T01:09:24;94971.47;;;-2.69;66.77
8756;BME280;4414;42.670;23.228;2024-01-30T01:11:50;94965.84;;;-2.71;66.21
8756;BME280;4414;42.670;23.228;2024-01-30T01:14:16;94960.13;;;-2.62;66.32
8756;BME280;4414;42.670;23.228;2024-01-30T01:16:41;94959.75;;;-2.61;67.25
8756;BME280;4414;42.670;23.228;2024-01-30T01:19:06;94960.84;;;-2.58;66.77
8756;BME280;4414;42.670;23.228;2024-01-30T01:21:32;94958.56;;;-2.56;66.41
8756;BME280;4414;42.670;23.228;2024-01-30T01:23:57;94957.34;;;-2.48;65.54
8756;BME280;4414;42.670;23.228;2024-01-30T01:26:23;94954.81;;;-2.55;65.69
8756;BME280;4414;42.670;23.228;2024-01-30T01:28:48;94962.69;;;-2.55;65.11
8756;BME280;4414;42.670;23.228;2024-01-30T01:31:13;94963.09;;;-2.60;65.48
8756;BME280;4414;42.670;23.228;2024-01-30T01:33:39;94959.75;;;-2.64;64.76
8756;BME280;4414;42.670;23.228;2024-01-30T01:36:04;94949.34;;;-2.71;65.38
8756;BME280;4414;42.670;23.228;2024-01-30T01:38:30;94960.59;;;-2.71;65.47
8756;BME280;4414;42.670;23.228;2024-01-30T01:40:55;94960.66;;;-2.78;65.27
8756;BME280;4414;42.670;23.228;2024-01-30T01:43:20;94961.44;;;-2.81;66.55
8756;BME280;4414;42.670;23.228;2024-01-30T01:45:46;94954.38;;;-2.91;66.38
8756;BME280;4414;42.670;23.228;2024-01-30T01:48:11;94961.56;;;-2.95;67.19
8756;BME280;4414;42.670;23.228;2024-01-30T01:50:38;94958.22;;;-2.99;66.56
8756;BME280;4414;42.670;23.228;2024-01-30T01:53:05;94960.06;;;-2.99;66.22
8756;BME280;4414;42.670;23.228;2024-01-30T01:55:31;94956.75;;;-3.03;67.62
8756;BME280;4414;42.670;23.228;2024-01-30T01:57:58;94954.88;;;-3.03;67.06
8756;BME280;4414;42.670;23.228;2024-01-30T02:00:23;94959.75;;;-3.08;67.49
8756;BME280;4414;42.670;23.228;2024-01-30T02:02:50;94962.78;;;-3.10;67.48
8756;BME280;4414;42.670;23.228;2024-01-30T02:05:17;94966.56;;;-3.14;67.28
8756;BME280;4414;42.670;23.228;2024-01-30T02:07:43;94965.47;;;-3.17;67.29
8756;BME280;4414;42.670;23.228;2024-01-30T02:10:09;94968.09;;;-3.20;66.49
8756;BME280;4414;42.670;23.228;2024-01-30T02:12:35;94970.75;;;-3.24;66.81
8756;BME280;4414;42.670;23.228;2024-01-30T02:15:00;94976.75;;;-3.23;66.47
8756;BME280;4414;42.670;23.228;2024-01-30T02:17:26;94976.00;;;-3.24;66.21
8756;BME280;4414;42.670;23.228;2024-01-30T02:19:51;94976.75;;;-3.23;66.06
8756;BME280;4414;42.670;23.228;2024-01-30T02:22:17;94974.50;;;-3.21;66.34
8756;BME280;4414;42.670;23.228;2024-01-30T02:24:43;94965.09;;;-3.22;65.69
8756;BME280;4414;42.670;23.228;2024-01-30T02:27:08;94957.59;;;-3.17;66.02
8756;BME280;4414;42.670;23.228;2024-01-30T02:29:34;94959.47;;;-3.17;65.59
8756;BME280;4414;42.670;23.228;2024-01-30T02:31:59;94953.78;;;-3.12;65.94
8756;BME280;4414;42.670;23.228;2024-01-30T02:34:24;94958.31;;;-3.13;65.28
8756;BME280;4414;42.670;23.228;2024-01-30T02:36:49;94951.53;;;-3.10;65.11
8756;BME280;4414;42.670;23.228;2024-01-30T02:39:15;94955.66;;;-3.09;65.61
8756;BME280;4414;42.670;23.228;2024-01-30T02:41:40;94952.63;;;-3.08;65.64
8756;BME280;4414;42.670;23.228;2024-01-30T02:44:05;94953.03;;;-3.09;65.47
8756;BME280;4414;42.670;23.228;2024-01-30T02:46:31;94960.13;;;-3.06;65.91
8756;BME280;4414;42.670;23.228;2024-01-30T02:48:56;94953.75;;;-3.05;65.19
8756;BME280;4414;42.670;23.228;2024-01-30T02:51:22;94959.75;;;-3.05;64.88
8756;BME280;4414;42.670;23.228;2024-01-30T02:53:47;94961.19;;;-3.00;65.34
8756;BME280;4414;42.670;23.228;2024-01-30T02:56:13;94955.94;;;-3.00;65.91
8756;BME280;4414;42.670;23.228;2024-01-30T02:58:39;94958.56;;;-2.97;64.53
8756;BME280;4414;42.670;23.228;2024-01-30T03:01:04;94958.22;;;-2.99;64.82
8756;BME280;4414;42.670;23.228;2024-01-30T03:03:29;94957.06;;;-2.98;65.42
8756;BME280;4414;42.670;23.228;2024-01-30T03:05:55;94955.94;;;-2.97;65.32
8756;BME280;4414;42.670;23.228;2024-01-30T03:08:20;94952.91;;;-2.95;65.06
8756;BME280;4414;42.670;23.228;2024-01-30T03:10:46;94946.53;;;-2.94;65.46
8756;BME280;4414;42.670;23.228;2024-01-30T03:13:11;94945.44;;;-2.97;65.20
8756;BME280;4414;42.670;23.228;2024-01-30T03:15:37;94946.91;;;-2.96;64.73
8756;BME280;4414;42.670;23.228;2024-01-30T03:18:02;94946.88;;;-2.92;65.47
8756;BME280;4414;42.670;23.228;2024-01-30T03:20:29;94950.66;;;-2.93;64.82
8756;BME280;4414;42.670;23.228;2024-01-30T03:22:55;94949.50;;;-2.92;65.19
8756;BME280;4414;42.670;23.228;2024-01-30T03:25:20;94948.41;;;-2.95;65.47
8756;BME280;4414;42.670;23.228;2024-01-30T03:27:45;94953.28;;;-2.93;64.57
8756;BME280;4414;42.670;23.228;2024-01-30T03:30:11;94948.06;;;-3.00;65.50
8756;BME280;4414;42.670;23.228;2024-01-30T03:32:36;94943.16;;;-2.95;64.16
8756;BME280;4414;42.670;23.228;2024-01-30T03:35:02;94946.91;;;-2.96;64.08
8756;BME280;4414;42.670;23.228;2024-01-30T03:37:27;94939.47;;;-3.04;63.88
8756;BME280;4414;42.670;23.228;2024-01-30T03:39:53;94939.47;;;-3.04;63.85
8756;BME280;4414;42.670;23.228;2024-01-30T03:42:18;94941.75;;;-3.03;63.88
8756;BME280;4414;42.670;23.228;2024-01-30T03:44:43;94934.22;;;-3.04;64.41
8756;BME280;4414;42.670;23.228;2024-01-30T03:47:08;94933.47;;;-3.01;64.20
8756;BME280;4414;42.670;23.228;2024-01-30T03:49:34;94935.38;;;-3.05;63.89
8756;BME280;4414;42.670;23.228;2024-01-30T03:51:59;94943.97;;;-3.01;63.56
8756;BME280;4414;42.670;23.228;2024-01-30T03:54:24;94937.59;;;-3.04;64.25
8756;BME280;4414;42.670;23.228;2024-01-30T03:56:50;94931.97;;;-3.02;63.86
8756;BME280;4414;42.670;23.228;2024-01-30T03:59:15;94934.59;;;-3.02;63.08
8756;BME280;4414;42.670;23.228;2024-01-30T04:01:41;94932.31;;;-3.00;63.40
8756;BME280;4414;42.670;23.228;2024-01-30T04:04:06;94936.50;;;-3.06;63.07
8756;BME280;4414;42.670;23.228;2024-01-30T04:06:32;94933.88;;;-3.06;62.87
8756;BME280;4414;42.670;23.228;2024-01-30T04:08:57;94934.63;;;-3.06;62.98
8756;BME280;4414;42.670;23.228;2024-01-30T04:11:22;94930.13;;;-3.05;62.57
8756;BME280;4414;42.670;23.228;2024-01-30T04:13:48;94928.66;;;-3.10;63.36
8756;BME280;4414;42.670;23.228;2024-01-30T04:16:20;94933.16;;;-3.10;62.71
8756;BME280;4414;42.670;23.228;2024-01-30T04:18:46;94930.53;;;-3.07;62.30
8756;BME280;4414;42.670;23.228;2024-01-30T04:21:11;94934.28;;;-3.08;63.63
8756;BME280;4414;42.670;23.228;2024-01-30T04:23:36;94932.03;;;-3.09;64.00
8756;BME280;4414;42.670;23.228;2024-01-30T04:26:02;94929.72;;;-3.04;63.81
8756;BME280;4414;42.670;23.228;2024-01-30T04:28:28;94938.69;;;-2.98;63.30
8756;BME280;4414;42.670;23.228;2024-01-30T04:30:54;94931.59;;;-3.01;62.82
8756;BME280;4414;42.670;23.228;2024-01-30T04:33:19;94939.84;;;-3.02;62.99
8756;BME280;4414;42.670;23.228;2024-01-30T04:35:44;94938.00;;;-3.05;63.04
8756;BME280;4414;42.670;23.228;2024-01-30T04:38:09;94942.56;;;-3.13;63.40
8756;BME280;4414;42.670;23.228;2024-01-30T04:40:35;94943.69;;;-3.14;63.84
8756;BME280;4414;42.670;23.228;2024-01-30T04:43:00;94942.94;;;-3.14;63.41
8756;BME280;4414;42.670;23.228;2024-01-30T04:45:25;94945.56;;;-3.11;63.07
8756;BME280;4414;42.670;23.228;2024-01-30T04:47:51;94940.66;;;-3.09;63.03
8756;BME280;4414;42.670;23.228;2024-01-30T04:50:16;94943.66;;;-3.10;63.61
8756;BME280;4414;42.670;23.228;2024-01-30T04:52:41;94955.69;;;-3.13;62.83
8756;BME280;4414;42.670;23.228;2024-01-30T04:55:07;94962.09;;;-3.17;63.61
8756;BME280;4414;42.670;23.228;2024-01-30T04:57:32;94972.94;;;-3.15;63.16
8756;BME280;4414;42.670;23.228;2024-01-30T04:59:58;94963.19;;;-3.15;62.58
8756;BME280;4414;42.670;23.228;2024-01-30T05:02:24;94963.63;;;-3.23;63.55
8756;BME280;4414;42.670;23.228;2024-01-30T05:04:49;94972.97;;;-3.22;63.16
8756;BME280;4414;42.670;23.228;2024-01-30T05:07:15;94965.13;;;-3.26;64.06
8756;BME280;4414;42.670;23.228;2024-01-30T05:09:40;94971.88;;;-3.21;63.92
8756;BME280;4414;42.670;23.228;2024-01-30T05:12:06;94971.91;;;-3.25;64.01
8756;BME280;4414;42.670;23.228;2024-01-30T05:14:32;94964.38;;;-3.26;63.73
8756;BME280;4414;42.670;23.228;2024-01-30T05:16:57;94972.28;;;-3.30;64.12
8756;BME280;4414;42.670;23.228;2024-01-30T05:19:23;94974.91;;;-3.30;64.12
8756;BME280;4414;42.670;23.228;2024-01-30T05:21:49;94979.38;;;-3.23;63.99
8756;BME280;4414;42.670;23.228;2024-01-30T05:24:14;94976.41;;;-3.32;64.52
8756;BME280;4414;42.670;23.228;2024-01-30T05:26:40;94977.94;;;-3.31;64.74
8756;BME280;4414;42.670;23.228;2024-01-30T05:29:06;94979.47;;;-3.37;64.15
8756;BME280;4414;42.670;23.228;2024-01-30T05:31:31;94972.00;;;-3.39;64.17
8756;BME280;4414;42.670;23.228;2024-01-30T05:33:57;94977.63;;;-3.44;65.80
8756;BME280;4414;42.670;23.228;2024-01-30T05:36:22;94975.03;;;-3.48;65.29
8756;BME280;4414;42.670;23.228;2024-01-30T05:38:47;94975.75;;;-3.43;64.98
8756;BME280;4414;42.670;23.228;2024-01-30T05:41:13;94974.31;;;-3.52;65.69
8756;BME280;4414;42.670;23.228;2024-01-30T05:43:38;94977.31;;;-3.53;65.13
8756;BME280;4414;42.670;23.228;2024-01-30T05:46:04;94982.56;;;-3.57;65.11
8756;BME280;4414;42.670;23.228;2024-01-30T05:48:29;94969.81;;;-3.55;65.39
8756;BME280;4414;42.670;23.228;2024-01-30T05:50:54;94973.56;;;-3.56;65.51
8756;BME280;4414;42.670;23.228;2024-01-30T05:53:20;94968.31;;;-3.52;64.97
8756;BME280;4414;42.670;23.228;2024-01-30T05:55:45;94968.31;;;-3.52;64.94
8756;BME280;4414;42.670;23.228;2024-01-30T05:58:11;94963.09;;;-3.56;65.42
8756;BME280;4414;42.670;23.228;2024-01-30T06:00:36;94965.34;;;-3.58;65.49
8756;BME280;4414;42.670;23.228;2024-01-30T06:03:02;94969.09;;;-3.59;64.89
8756;BME280;4414;42.670;23.228;2024-01-30T06:05:27;94972.50;;;-3.62;64.93
8756;BME280;4414;42.670;23.228;2024-01-30T06:07:52;94968.41;;;-3.70;65.52
8756;BME280;4414;42.670;23.228;2024-01-30T06:10:18;94970.63;;;-3.68;65.79
8756;BME280;4414;42.670;23.228;2024-01-30T06:12:44;94966.53;;;-3.69;65.14
8756;BME280;4414;42.670;23.228;2024-01-30T06:15:09;94969.53;;;-3.67;64.81
8756;BME280;4414;42.670;23.228;2024-01-30T06:17:35;94970.25;;;-3.67;64.73
8756;BME280;4414;42.670;23.228;2024-01-30T06:20:00;94975.13;;;-3.65;65.03
8756;BME280;4414;42.670;23.228;2024-01-30T06:22:26;94970.63;;;-3.65;64.39
8756;BME280;4414;42.670;23.228;2024-01-30T06:24:51;94975.88;;;-3.65;63.90
8756;BME280;4414;42.670;23.228;2024-01-30T06:27:16;94977.38;;;-3.71;63.99
8756;BME280;4414;42.670;23.228;2024-01-30T06:29:43;94982.63;;;-3.67;63.42
8756;BME280;4414;42.670;23.228;2024-01-30T06:32:08;94980.75;;;-3.63;62.99
8756;BME280;4414;42.670;23.228;2024-01-30T06:34:34;94988.16;;;-3.55;63.14
8756;BME280;4414;42.670;23.228;2024-01-30T06:36:59;94982.47;;;-3.42;62.44
8756;BME280;4414;42.670;23.228;2024-01-30T06:39:26;94980.22;;;-3.40;61.90
8756;BME280;4414;42.670;23.228;2024-01-30T06:41:51;94981.63;;;-3.25;62.54
8756;BME280;4414;42.670;23.228;2024-01-30T06:44:16;94977.34;;;-3.02;61.99
8756;BME280;4414;42.670;23.228;2024-01-30T06:46:42;94983.63;;;-2.89;60.51
8756;BME280;4414;42.670;23.228;2024-01-30T06:49:07;94980.66;;;-2.94;60.25
8756;BME280;4414;42.670;23.228;2024-01-30T06:51:32;94986.31;;;-2.99;60.22
8756;BME280;4414;42.670;23.228;2024-01-30T06:53:58;94981.00;;;-2.89;61.29
8756;BME280;4414;42.670;23.228;2024-01-30T06:56:23;94985.78;;;-2.80;59.83
8756;BME280;4414;42.670;23.228;2024-01-30T06:58:49;94977.88;;;-2.73;60.38
8756;BME280;4414;42.670;23.228;2024-01-30T07:01:15;94987.63;;;-2.74;59.01
8756;BME280;4414;42.670;23.228;2024-01-30T07:03:40;94991.63;;;-2.62;59.03
8756;BME280;4414;42.670;23.228;2024-01-30T07:06:06;94993.03;;;-2.47;58.47
8756;BME280;4414;42.670;23.228;2024-01-30T07:08:31;94991.16;;;-2.50;58.05
8756;BME280;4414;42.670;23.228;2024-01-30T07:10:56;94989.56;;;-2.40;59.40
8756;BME280;4414;42.670;23.228;2024-01-30T07:13:22;94981.78;;;-2.51;57.91
8756;BME280;4414;42.670;23.228;2024-01-30T07:15:47;94992.22;;;-2.44;57.85
8756;BME280;4414;42.670;23.228;2024-01-30T07:18:13;94983.75;;;-2.21;58.30
8756;BME280;4414;42.670;23.228;2024-01-30T07:20:38;94985.81;;;-2.06;55.50
8756;BME280;4414;42.670;23.228;2024-01-30T07:23:10;94984.91;;;-1.89;56.94
8756;BME280;4414;42.670;23.228;2024-01-30T07:25:39;94985.44;;;-1.70;55.56
8756;BME280;4414;42.670;23.228;2024-01-30T07:28:07;94994.50;;;-1.75;55.79
8756;BME280;4414;42.670;23.228;2024-01-30T07:30:32;94997.94;;;-1.51;56.00
8756;BME280;4414;42.670;23.228;2024-01-30T07:32:57;94978.22;;;-1.36;55.50
8756;BME280;4414;42.670;23.228;2024-01-30T07:35:23;94991.84;;;-1.18;54.56
8756;BME280;4414;42.670;23.228;2024-01-30T07:37:48;94990.94;;;-1.08;53.16
8756;BME280;4414;42.670;23.228;2024-01-30T07:40:14;94988.38;;;-1.12;52.34
8756;BME280;4414;42.670;23.228;2024-01-30T07:42:39;94981.97;;;-1.37;53.75
8756;BME280;4414;42.670;23.228;2024-01-30T07:45:05;94979.97;;;-1.30;51.55
8756;BME280;4414;42.670;23.228;2024-01-30T07:47:30;94979.25;;;-1.30;54.26
8756;BME280;4414;42.670;23.228;2024-01-30T07:49:56;94989.31;;;-1.25;53.05
8756;BME280;4414;42.670;23.228;2024-01-30T07:52:21;94981.63;;;-1.39;52.61
8756;BME280;4414;42.670;23.228;2024-01-30T07:54:50;94974.53;;;-1.42;53.62
8756;BME280;4414;42.670;23.228;2024-01-30T07:57:16;94975.53;;;-1.33;52.62
8756;BME280;4414;42.670;23.228;2024-01-30T07:59:43;94981.19;;;-1.34;53.91
8756;BME280;4414;42.670;23.228;2024-01-30T08:02:12;94978.47;;;-1.04;53.93
8756;BME280;4414;42.670;23.228;2024-01-30T08:04:38;94980.75;;;-1.06;52.02
8756;BME280;4414;42.670;23.228;2024-01-30T08:07:03;94981.91;;;-1.07;52.78
8756;BME280;4414;42.670;23.228;2024-01-30T08:09:28;94968.25;;;-0.99;53.17
8756;BME280;4414;42.670;23.228;2024-01-30T08:11:54;94976.41;;;-1.16;52.43
8756;BME280;4414;42.670;23.228;2024-01-30T08:14:19;94976.59;;;-1.04;53.24
8756;BME280;4414;42.670;23.228;2024-01-30T08:16:45;94978.81;;;-1.02;52.05
8756;BME280;4414;42.670;23.228;2024-01-30T08:19:10;94979.22;;;-1.04;52.72
8756;BME280;4414;42.670;23.228;2024-01-30T08:21:36;94981.91;;;-1.07;51.94
8756;BME280;4414;42.670;23.228;2024-01-30T08:24:05;94975.41;;;-0.99;52.66
8756;BME280;4414;42.670;23.228;2024-01-30T08:26:35;94984.28;;;-0.90;52.52
8756;BME280;4414;42.670;23.228;2024-01-30T08:29:01;94981.94;;;-0.84;52.00
8756;BME280;4414;42.670;23.228;2024-01-30T08:31:26;94987.25;;;-0.88;52.62
8756;BME280;4414;42.670;23.228;2024-01-30T08:33:52;94989.50;;;-0.86;51.92
8756;BME280;4414;42.670;23.228;2024-01-30T08:36:18;94978.09;;;-0.79;51.57
8756;BME280;4414;42.670;23.228;2024-01-30T08:38:43;94979.41;;;-0.68;51.16
8756;BME280;4414;42.670;23.228;2024-01-30T08:41:09;94986.94;;;-0.66;51.83
8756;BME280;4414;42.670;23.228;2024-01-30T08:43:35;94990.66;;;-0.41;50.63
8756;BME280;4414;42.670;23.228;2024-01-30T08:46:01;94985.03;;;-0.43;50.74
8756;BME280;4414;42.670;23.228;2024-01-30T08:48:27;94984.09;;;-0.33;51.55
8756;BME280;4414;42.670;23.228;2024-01-30T08:50:52;94989.88;;;-0.18;49.08
8756;BME280;4414;42.670;23.228;2024-01-30T08:53:18;94995.44;;;-0.36;50.26
8756;BME280;4414;42.670;23.228;2024-01-30T08:55:44;94992.94;;;-0.66;50.69
8756;BME280;4414;42.670;23.228;2024-01-30T08:58:09;94986.56;;;-0.45;50.26
8756;BME280;4414;42.670;23.228;2024-01-30T09:00:35;94995.91;;;-0.41;50.74
8756;BME280;4414;42.670;23.228;2024-01-30T09:03:00;94999.94;;;-0.56;51.81
8756;BME280;4414;42.670;23.228;2024-01-30T09:05:26;94996.72;;;-0.67;51.11
8756;BME280;4414;42.670;23.228;2024-01-30T09:07:51;94998.25;;;-0.69;53.25
8756;BME280;4414;42.670;23.228;2024-01-30T09:10:16;94998.22;;;-0.43;53.29
8756;BME280;4414;42.670;23.228;2024-01-30T09:12:42;94999.78;;;-0.26;52.65
8756;BME280;4414;42.670;23.228;2024-01-30T09:15:08;94996.63;;;-0.17;51.32
8756;BME280;4414;42.670;23.228;2024-01-30T09:17:33;94998.31;;;-0.27;51.61
8756;BME280;4414;42.670;23.228;2024-01-30T09:19:59;94991.25;;;-0.33;51.99
8756;BME280;4414;42.670;23.228;2024-01-30T09:22:25;94987.06;;;-0.50;52.06
8756;BME280;4414;42.670;23.228;2024-01-30T09:24:51;94987.31;;;-0.68;53.92
8756;BME280;4414;42.670;23.228;2024-01-30T09:27:16;94986.03;;;-0.56;53.79
8756;BME280;4414;42.670;23.228;2024-01-30T09:29:42;94987.56;;;-0.59;54.08
8756;BME280;4414;42.670;23.228;2024-01-30T09:32:07;94984.00;;;-0.72;54.20
8756;BME280;4414;42.670;23.228;2024-01-30T09:34:34;94991.09;;;-0.92;55.39
8756;BME280;4414;42.670;23.228;2024-01-30T09:36:59;94981.22;;;-0.84;55.87
8756;BME280;4414;42.670;23.228;2024-01-30T09:39:25;94972.19;;;-0.64;53.76
8756;BME280;4414;42.670;23.228;2024-01-30T09:44:35;94979.88;;;-0.73;55.65
8756;BME280;4414;42.670;23.228;2024-01-30T09:47:02;94987.56;;;-0.59;55.28
8756;BME280;4414;42.670;23.228;2024-01-30T09:49:34;94979.25;;;-0.80;56.48
8756;BME280;4414;42.670;23.228;2024-01-30T09:52:03;94975.19;;;-0.85;55.01
8756;BME280;4414;42.670;23.228;2024-01-30T09:54:30;94965.34;;;-0.81;55.17
8756;BME280;4414;42.670;23.228;2024-01-30T09:56:57;94974.38;;;-0.82;54.45
8756;BME280;4414;42.670;23.228;2024-01-30T09:59:22;94977.31;;;-0.76;54.26
8756;BME280;4414;42.670;23.228;2024-01-30T10:01:50;94973.47;;;-0.72;54.16
8756;BME280;4414;42.670;23.228;2024-01-30T10:04:15;94975.72;;;-0.70;54.46
8756;BME280;4414;42.670;23.228;2024-01-30T10:06:41;94972.97;;;-0.87;54.46
8756;BME280;4414;42.670;23.228;2024-01-30T10:09:07;94978.44;;;-1.01;54.28
8756;BME280;4414;42.670;23.228;2024-01-30T10:11:33;94976.38;;;-1.13;55.14
8756;BME280;4414;42.670;23.228;2024-01-30T10:14:00;94962.22;;;-0.99;55.72
8756;BME280;4414;42.670;23.228;2024-01-30T10:16:25;94959.66;;;-0.79;53.80
8756;BME280;4414;42.670;23.228;2024-01-30T10:18:50;94958.47;;;-0.75;54.08
8756;BME280;4414;42.670;23.228;2024-01-30T10:21:16;94959.75;;;-0.40;53.17
8756;BME280;4414;42.670;23.228;2024-01-30T10:23:43;94964.56;;;-0.16;53.09
8756;BME280;4414;42.670;23.228;2024-01-30T10:26:09;94960.19;;;-0.03;51.46
8756;BME280;4414;42.670;23.228;2024-01-30T10:28:35;94966.25;;;0.14;50.96
8756;BME280;4414;42.670;23.228;2024-01-30T10:31:01;94957.13;;;0.19;51.37
8756;BME280;4414;42.670;23.228;2024-01-30T10:33:27;94960.88;;;0.02;51.46
8756;BME280;4414;42.670;23.228;2024-01-30T10:36:03;94976.97;;;-0.13;52.48
8756;BME280;4414;42.670;23.228;2024-01-30T10:38:29;94963.88;;;-0.39;51.72
8756;BME280;4414;42.670;23.228;2024-01-30T10:41:00;94956.19;;;-0.30;53.39
8756;BME280;4414;42.670;23.228;2024-01-30T10:43:31;94957.72;;;-0.52;52.73
8756;BME280;4414;42.670;23.228;2024-01-30T10:45:57;94966.75;;;-0.53;53.19
8756;BME280;4414;42.670;23.228;2024-01-30T10:48:29;94959.81;;;-0.44;52.76
8756;BME280;4414;42.670;23.228;2024-01-30T10:50:55;94954.97;;;-0.68;52.57
8756;BME280;4414;42.670;23.228;2024-01-30T10:53:23;94952.03;;;-0.51;53.89
8756;BME280;4414;42.670;23.228;2024-01-30T10:55:51;94951.03;;;-0.37;51.33
8756;BME280;4414;42.670;23.228;2024-01-30T10:58:17;94941.31;;;-0.21;51.43
8756;BME280;4414;42.670;23.228;2024-01-30T11:00:44;94937.00;;;-0.11;51.43
8756;BME280;4414;42.670;23.228;2024-01-30T11:03:10;94941.91;;;-0.33;51.92
8756;BME280;4414;42.670;23.228;2024-01-30T11:05:40;94930.56;;;-0.30;51.87
8756;BME280;4414;42.670;23.228;2024-01-30T11:08:14;94931.09;;;-0.38;53.09
8756;BME280;4414;42.670;23.228;2024-01-30T11:10:47;94931.91;;;-0.41;52.90
8756;BME280;4414;42.670;23.228;2024-01-30T11:13:15;94921.09;;;-0.47;52.91
8756;BME280;4414;42.670;23.228;2024-01-30T11:15:41;94913.47;;;-0.02;52.63
8756;BME280;4414;42.670;23.228;2024-01-30T11:18:07;94918.09;;;0.10;51.73
8756;BME280;4414;42.670;23.228;2024-01-30T11:20:32;94923.03;;;0.28;51.48
8756;BME280;4414;42.670;23.228;2024-01-30T11:22:59;94912.66;;;0.37;51.97
8756;BME280;4414;42.670;23.228;2024-01-30T11:25:32;94916.44;;;0.36;51.22
8756;BME280;4414;42.670;23.228;2024-01-30T11:27:58;94906.47;;;0.43;51.12
8756;BME280;4414;42.670;23.228;2024-01-30T11:30:25;94913.41;;;0.37;49.90
8756;BME280;4414;42.670;23.228;2024-01-30T11:33:10;94916.59;;;0.29;51.68
8756;BME280;4414;42.670;23.228;2024-01-30T11:35:45;94914.16;;;0.38;51.64
8756;BME280;4414;42.670;23.228;2024-01-30T11:38:13;94914.00;;;0.61;51.59
8756;BME280;4414;42.670;23.228;2024-01-30T11:40:40;94922.25;;;0.63;50.76
8756;BME280;4414;42.670;23.228;2024-01-30T11:43:07;94924.66;;;0.73;50.12
8756;BME280;4414;42.670;23.228;2024-01-30T11:45:33;94917.78;;;0.44;50.76
8756;BME280;4414;42.670;23.228;2024-01-30T11:47:59;94915.47;;;0.46;52.73
8756;BME280;4414;42.670;23.228;2024-01-30T11:50:26;94917.81;;;0.60;51.63
8756;BME280;4414;42.670;23.228;2024-01-30T11:52:52;94915.84;;;0.80;50.65
8756;BME280;4414;42.670;23.228;2024-01-30T11:55:19;94900.66;;;1.00;50.01
8756;BME280;4414;42.670;23.228;2024-01-30T11:57:45;94914.91;;;1.19;49.02
8756;BME280;4414;42.670;23.228;2024-01-30T12:00:17;94915.09;;;1.12;49.74
8756;BME280;4414;42.670;23.228;2024-01-30T12:02:44;94903.63;;;0.54;50.08
8756;BME280;4414;42.670;23.228;2024-01-30T12:05:09;94901.03;;;0.50;51.68
8756;BME280;4414;42.670;23.228;2024-01-30T12:07:35;94897.66;;;0.34;51.46
8756;BME280;4414;42.670;23.228;2024-01-30T12:10:01;94891.78;;;0.42;50.72
8756;BME280;4414;42.670;23.228;2024-01-30T12:12:28;94885.41;;;0.24;51.16
8756;BME280;4414;42.670;23.228;2024-01-30T12:14:55;94885.69;;;0.45;52.26
8756;BME280;4414;42.670;23.228;2024-01-30T12:17:32;94876.03;;;0.39;51.73
8756;BME280;4414;42.670;23.228;2024-01-30T12:20:08;94870.41;;;0.37;52.17
8756;BME280;4414;42.670;23.228;2024-01-30T12:22:41;94865.41;;;0.58;51.87
8756;BME280;4414;42.670;23.228;2024-01-30T12:25:12;94863.75;;;0.48;51.06
8756;BME280;4414;42.670;23.228;2024-01-30T12:27:38;94865.06;;;0.56;51.81
8756;BME280;4414;42.670;23.228;2024-01-30T12:30:08;94865.41;;;0.74;51.15
8756;BME280;4414;42.670;23.228;2024-01-30T12:32:38;94863.50;;;0.59;51.27
8756;BME280;4414;42.670;23.228;2024-01-30T12:35:07;94865.34;;;0.62;50.90
8756;BME280;4414;42.670;23.228;2024-01-30T12:37:33;94871.41;;;0.43;51.60
8756;BME280;4414;42.670;23.228;2024-01-30T12:39:59;94854.75;;;0.46;51.62
8756;BME280;4414;42.670;23.228;2024-01-30T12:42:26;94860.19;;;0.39;50.99
8756;BME280;4414;42.670;23.228;2024-01-30T12:44:52;94859.28;;;0.29;52.05
8756;BME280;4414;42.670;23.228;2024-01-30T12:47:17;94856.13;;;0.34;51.04
8756;BME280;4414;42.670;23.228;2024-01-30T12:49:43;94859.78;;;0.40;51.17
8756;BME280;4414;42.670;23.228;2024-01-30T12:52:13;94857.53;;;0.23;51.59
8756;BME280;4414;42.670;23.228;2024-01-30T12:54:39;94853.09;;;0.36;51.04
8756;BME280;4414;42.670;23.228;2024-01-30T12:57:05;94844.69;;;0.41;51.20
8756;BME280;4414;42.670;23.228;2024-01-30T12:59:31;94840.91;;;0.42;51.65
8756;BME280;4414;42.670;23.228;2024-01-30T13:01:56;94838.09;;;0.49;51.22
8756;BME280;4414;42.670;23.228;2024-01-30T13:04:22;94829.84;;;0.63;50.92
8756;BME280;4414;42.670;23.228;2024-01-30T13:06:48;94834.78;;;0.61;50.19
8756;BME280;4414;42.670;23.228;2024-01-30T13:09:13;94835.13;;;0.63;51.12